Waterloo Airport
CYKF : now visible

Airfield :











YOU CAN JOIN US ON...

 
LOGIN :

Register | Disclaimer

   EN    FR    IT 

 









Legend :    VFR   Marginal VFR   IFR   Intensive IFR   Very Intensive IFR
Visi :
Ceiling :
>= 8 km
>= 3000ft
5 to 8 km
1000 to 3000 ft
1500m to 5 km
500 to 1000 ft
800 to 1500m
200 to 500 ft
< 800m
< 200 ft
Symbols :   Thunderstorms  Fog  Heavy snow  Heavy precipitations  Wind > 20 kt







- Airport Elevation : 1054 ft
- IATA code : YKF


CYKF - Waterloo

CURRENT METAR :
  • 230200Z AUTO 32013G24KT 9SM OVC027 M03/M08 A2992 RMK SLP146

EXPIRED METARs :
  • 230100Z AUTO 32015G25KT 9SM BKN026 OVC033 M03/M07 A2989 RMK SLP135
  • 230000Z AUTO 32017G32KT 9SM OVC028 M03/M08 A2986 RMK SLP126

TAF TAF CYKF
Valid from the 23 at 02:00 until the 23 at 14:00 UTC


230138Z 2302/2314 32015G30KT P6SM BKN030
FM230500 32015G30KT P6SM SCT030
BECMG 2312/2314 32015G25KT RMK FCST BASED ON AUTO OBS. NXT FCST BY 230800Z
CZYZ FIR / North America



MET'MAP, your aeronautical weather chart ! - Copyright ORBIFLY December 2007 - Disclaimer

ORBIFLY MET'MAP TEAM :

Programming & Development : Alexandra Zaïnal
Concept & Development : Baudouin d'Aumeries
Co-Development & Prog : Marc-Olivier Méhu
Technical & hardware support : Manuel Goepfert

Contact : metmap@orbifly.com




SOURCES & CREDITS :

   NOAA       Earth
Advisory